createdAt,value
2023-04-13T00:02:48.292Z,99693.56
2023-04-13T00:08:11.299Z,99676.13
2023-04-13T00:13:31.298Z,99682.94
2023-04-13T00:18:51.912Z,99666.22
2023-04-13T00:24:11.630Z,99665.00
2023-04-13T00:29:28.348Z,99648.25
2023-04-13T00:34:45.844Z,99635.56
2023-04-13T00:40:07.585Z,99622.88
2023-04-13T00:45:25.219Z,99618.53
2023-04-13T00:50:46.464Z,99619.38
2023-04-13T00:56:07.116Z,99608.63
2023-04-13T01:01:37.801Z,99600.28
2023-04-13T01:12:45.780Z,99595.53
2023-04-13T01:23:50.912Z,99561.00
2023-04-13T01:29:11.823Z,99552.66
2023-04-13T01:34:35.179Z,99543.94
2023-04-13T01:39:55.853Z,99528.81
2023-04-13T01:45:30.199Z,99531.94
2023-04-13T01:50:55.265Z,99534.31
2023-04-13T01:56:27.170Z,99522.75
2023-04-13T02:01:55.725Z,99512.84
2023-04-13T02:07:17.128Z,99495.38
2023-04-13T02:12:45.544Z,99479.56
2023-04-13T02:18:06.403Z,99474.41
2023-04-13T02:23:32.564Z,99473.63
2023-04-13T02:28:51.980Z,99477.63
2023-04-13T02:34:09.562Z,99480.41
2023-04-13T02:39:28.727Z,99490.69
2023-04-13T02:44:49.206Z,99499.81
2023-04-13T02:50:09.952Z,99501.81
2023-04-13T02:55:48.710Z,99508.97
2023-04-13T03:01:05.143Z,99518.53
2023-04-13T03:06:23.278Z,99516.97
2023-04-13T03:11:42.568Z,99512.25
2023-04-13T03:17:12.886Z,99505.09
2023-04-13T03:27:55.814Z,99504.28
2023-04-13T03:33:19.886Z,99509.03
2023-04-13T03:38:41.640Z,99505.03
2023-04-13T03:44:00.617Z,99507.38
2023-04-13T03:49:22.857Z,99518.50
2023-04-13T03:54:52.924Z,99525.16
2023-04-13T04:00:23.598Z,99521.50
2023-04-13T04:05:55.226Z,99524.22
2023-04-13T04:11:16.069Z,99517.78
2023-04-13T04:16:35.231Z,99531.66
2023-04-13T04:21:56.476Z,99540.34
2023-04-13T04:27:24.380Z,99533.91
2023-04-13T04:32:46.715Z,99523.44
2023-04-13T04:38:11.632Z,99530.94
2023-04-13T04:43:41.954Z,99525.78
2023-04-13T04:49:03.601Z,99513.72
2023-04-13T04:54:23.648Z,99517.59
2023-04-13T04:59:40.139Z,99527.00
2023-04-13T05:05:00.131Z,99529.72
2023-04-13T05:10:20.127Z,99523.09
2023-04-13T05:15:40.153Z,99505.97
2023-04-13T05:21:00.219Z,99490.03
2023-04-13T05:31:55.231Z,99481.09
2023-04-13T05:37:15.280Z,99464.22
2023-04-13T05:42:35.342Z,99478.56
2023-04-13T05:48:05.349Z,99455.19
2023-04-13T05:53:25.410Z,99448.38
2023-04-13T06:04:10.538Z,99444.47
2023-04-13T06:09:38.716Z,99443.22
2023-04-13T06:20:38.654Z,99433.09
2023-04-13T06:31:48.718Z,99415.50
2023-04-13T06:37:08.738Z,99411.50
2023-04-13T06:42:28.756Z,99404.22
2023-04-13T06:47:58.897Z,99409.34
2023-04-13T06:53:18.838Z,99384.50
2023-04-13T07:04:04.006Z,99363.53
2023-04-13T07:09:33.942Z,99359.09
2023-04-13T07:14:54.012Z,99366.34
2023-04-13T07:20:08.575Z,99346.09
2023-04-13T07:25:11.912Z,99350.09
2023-04-13T07:30:16.504Z,99336.44
2023-04-13T07:35:22.322Z,99310.59
2023-04-13T07:40:25.262Z,99314.63
2023-04-13T07:45:32.541Z,99326.94
2023-04-13T07:50:44.386Z,99308.97
2023-04-13T07:55:54.503Z,99300.09
2023-04-13T08:01:00.408Z,99271.25
2023-04-13T08:06:07.852Z,99274.41
2023-04-13T08:11:10.646Z,99282.28
2023-04-13T08:16:15.960Z,99282.50
2023-04-13T08:21:20.073Z,99287.28
2023-04-13T08:26:25.216Z,99281.75
2023-04-13T08:31:28.025Z,99286.38
2023-04-13T08:36:36.290Z,99288.16
2023-04-13T08:41:45.673Z,99281.25
2023-04-13T08:46:54.097Z,99257.63
2023-04-13T08:52:16.718Z,99257.59
2023-04-13T08:57:26.680Z,99260.97
2023-04-13T09:02:40.603Z,99249.75
2023-04-13T09:13:24.073Z,99273.16
2023-04-13T09:18:42.472Z,99273.25
2023-04-13T09:24:04.493Z,99273.25
2023-04-13T09:29:12.051Z,99285.97
2023-04-13T09:34:26.317Z,99293.81
2023-04-13T09:39:29.418Z,99275.84
2023-04-13T09:44:35.146Z,99300.41
2023-04-13T09:54:52.873Z,99265.16
2023-04-13T09:59:57.910Z,99258.06
2023-04-13T10:05:00.887Z,99266.72
2023-04-13T10:10:04.920Z,99290.94
2023-04-13T10:15:28.172Z,99265.25
2023-04-13T10:20:32.051Z,99261.53
2023-04-13T10:25:39.169Z,99256.69
2023-04-13T10:30:50.286Z,99239.25
2023-04-13T10:35:58.751Z,99242.88
2023-04-13T10:41:01.882Z,99234.44
2023-04-13T10:46:09.073Z,99237.13
2023-04-13T10:51:12.907Z,99249.19
2023-04-13T10:56:18.061Z,99238.47
2023-04-13T11:01:24.693Z,99235.66
2023-04-13T11:06:31.638Z,99212.59
2023-04-13T11:11:44.872Z,99207.44
2023-04-13T11:16:51.213Z,99194.97
2023-04-13T11:21:58.222Z,99203.03
2023-04-13T11:27:04.017Z,99187.47
2023-04-13T11:32:06.945Z,99193.47
2023-04-13T11:37:11.767Z,99181.09
2023-04-13T11:42:15.878Z,99167.13
2023-04-13T11:47:22.233Z,99164.50
2023-04-13T11:52:28.962Z,99157.19
2023-04-13T11:57:38.457Z,99149.31
2023-04-13T12:03:01.332Z,99136.28
2023-04-13T12:08:10.139Z,99143.81
2023-04-13T12:18:23.847Z,99133.50
2023-04-13T12:23:35.108Z,99132.31
2023-04-13T12:28:42.183Z,99130.38
2023-04-13T12:33:49.660Z,99135.47
2023-04-13T12:38:56.522Z,99146.22
2023-04-13T12:44:01.640Z,99136.47
2023-04-13T12:49:05.435Z,99130.16
2023-04-13T12:54:13.366Z,99114.63
2023-04-13T12:59:16.836Z,99109.59
2023-04-13T13:04:19.592Z,99093.56
2023-04-13T13:09:22.465Z,99096.00
2023-04-13T13:14:25.072Z,99095.94
2023-04-13T13:19:27.675Z,99099.03
2023-04-13T13:24:30.319Z,99092.66
2023-04-13T13:29:37.338Z,99111.63
2023-04-13T13:34:40.233Z,99101.09
2023-04-13T13:39:43.240Z,99098.84
2023-04-13T13:44:45.836Z,99115.44
2023-04-13T13:49:48.402Z,99131.25
2023-04-13T14:09:50.658Z,99093.28
2023-04-13T14:14:53.585Z,99099.09
2023-04-13T14:19:56.454Z,99099.69
2023-04-13T14:24:59.528Z,99104.88
2023-04-13T14:30:02.972Z,99101.03
2023-04-13T14:35:05.911Z,99093.75
2023-04-13T14:40:14.569Z,99090.81
2023-04-13T14:45:17.755Z,99078.34
2023-04-13T14:50:21.483Z,99079.25
2023-04-13T14:55:24.409Z,99067.28
2023-04-13T15:00:39.032Z,99058.72
2023-04-13T15:05:45.549Z,99064.97
2023-04-13T15:10:48.884Z,99056.56
2023-04-13T15:15:52.829Z,99057.19
2023-04-13T15:20:55.955Z,99043.97
2023-04-13T15:25:58.767Z,99040.03
2023-04-13T15:31:01.588Z,99025.88
2023-04-13T15:36:05.583Z,99038.31
2023-04-13T15:41:11.328Z,99031.31
2023-04-13T15:46:13.998Z,99028.41
2023-04-13T15:51:16.570Z,99028.69
2023-04-13T15:56:19.602Z,99028.59
2023-04-13T16:01:23.596Z,99028.34
2023-04-13T16:06:27.910Z,99030.44
2023-04-13T16:11:31.850Z,99024.91
2023-04-13T16:16:56.841Z,99025.97
2023-04-13T16:22:07.555Z,99023.59
2023-04-13T16:27:10.389Z,99000.63
2023-04-13T16:32:13.067Z,98979.66
2023-04-13T16:37:16.544Z,98974.13
2023-04-13T16:42:21.803Z,98960.38
2023-04-13T16:47:25.363Z,98943.31
2023-04-13T16:52:41.939Z,98958.41
2023-04-13T16:57:45.347Z,98972.69
2023-04-13T17:02:48.098Z,98983.16
2023-04-13T17:07:50.885Z,98975.56
2023-04-13T17:12:54.916Z,98964.81
2023-04-13T17:17:58.593Z,98952.88
2023-04-13T17:23:01.439Z,98946.88
2023-04-13T17:28:04.180Z,98971.03
2023-04-13T17:33:07.531Z,98987.06
2023-04-13T17:38:10.891Z,98962.31
2023-04-13T17:43:13.531Z,98962.50
2023-04-13T17:48:18.145Z,98952.53
2023-04-13T17:53:21.367Z,98941.28
2023-04-13T17:58:24.739Z,98935.69
2023-04-13T18:03:27.596Z,98931.03
2023-04-13T18:08:30.966Z,98931.19
2023-04-13T18:13:34.511Z,98921.47
2023-04-13T18:18:38.584Z,98913.28
2023-04-13T18:23:41.550Z,98899.03
2023-04-13T18:28:44.456Z,98898.63
2023-04-13T18:33:47.827Z,98896.59
2023-04-13T18:38:51.277Z,98884.34
2023-04-13T18:43:54.077Z,98886.28
2023-04-13T18:48:56.770Z,98872.63
2023-04-13T18:53:59.960Z,98863.63
2023-04-13T18:59:02.885Z,98864.94
2023-04-13T19:04:06.239Z,98878.59
2023-04-13T19:09:11.868Z,98884.41
2023-04-13T19:14:14.616Z,98875.88
2023-04-13T19:19:19.120Z,98874.88
2023-04-13T19:24:23.159Z,98894.19
2023-04-13T19:29:30.273Z,98886.00
2023-04-13T19:34:33.468Z,98875.69
2023-04-13T19:39:36.484Z,98885.19
2023-04-13T19:44:39.114Z,98879.91
2023-04-13T19:49:41.817Z,98879.25
2023-04-13T19:54:45.876Z,98885.16
2023-04-13T19:59:48.608Z,98885.81
2023-04-13T20:04:52.298Z,98892.06
2023-04-13T20:09:54.895Z,98892.63
2023-04-13T20:14:57.537Z,98881.00
2023-04-13T20:20:00.471Z,98883.19
2023-04-13T20:25:03.287Z,98877.63
2023-04-13T20:30:06.773Z,98866.59
2023-04-13T20:35:10.223Z,98873.25
2023-04-13T20:40:13.428Z,98869.38
2023-04-13T20:45:17.762Z,98852.56
2023-04-13T20:50:24.344Z,98855.44
2023-04-13T20:55:29.462Z,98859.78
2023-04-13T21:00:32.701Z,98852.09
2023-04-13T21:05:35.878Z,98844.13
2023-04-13T21:10:40.554Z,98850.25
2023-04-13T21:15:43.389Z,98837.22
2023-04-13T21:20:45.958Z,98831.97
2023-04-13T21:25:48.632Z,98841.91
2023-04-13T21:30:51.256Z,98832.97
2023-04-13T21:35:53.764Z,98833.19
2023-04-13T21:40:56.534Z,98834.13
2023-04-13T21:45:59.106Z,98823.13
2023-04-13T21:51:02.204Z,98827.97
2023-04-13T21:56:05.499Z,98835.22
2023-04-13T22:01:08.780Z,98835.50
2023-04-13T22:06:11.805Z,98844.47
2023-04-13T22:11:14.776Z,98841.69
2023-04-13T22:16:18.048Z,98832.44
2023-04-13T22:21:20.905Z,98819.09
2023-04-13T22:26:25.480Z,98810.41
2023-04-13T22:31:28.096Z,98806.97
2023-04-13T22:36:30.700Z,98804.81
2023-04-13T22:41:33.202Z,98798.81
2023-04-13T22:46:35.989Z,98790.16
2023-04-13T22:51:40.128Z,98785.69
2023-04-13T22:56:42.604Z,98790.91
2023-04-13T23:01:45.239Z,98790.09
2023-04-13T23:06:47.999Z,98787.00
2023-04-13T23:11:50.655Z,98782.63
2023-04-13T23:16:53.281Z,98799.16
2023-04-13T23:21:55.837Z,98811.59
2023-04-13T23:26:58.704Z,98808.91
2023-04-13T23:32:01.681Z,98806.94
2023-04-13T23:37:04.302Z,98803.63
2023-04-13T23:42:06.917Z,98801.00
2023-04-13T23:47:09.490Z,98796.53
2023-04-13T23:52:12.109Z,98797.31
2023-04-13T23:57:14.640Z,98780.22
